createdAt,value
2022-08-28T07:50:39.486Z,5.00
2022-08-28T07:52:13.944Z,4.72
2022-08-28T07:53:46.383Z,5.25
2022-08-28T07:55:18.808Z,4.65
2022-08-28T07:56:51.689Z,5.18
2022-08-28T07:58:27.585Z,5.15
2022-08-28T08:00:00.009Z,4.60
2022-08-28T08:01:40.660Z,5.00
2022-08-28T08:03:14.107Z,5.15
2022-08-28T08:04:46.363Z,4.93
2022-08-28T08:06:19.141Z,4.60
2022-08-28T08:07:51.573Z,4.35
2022-08-28T08:09:24.028Z,4.68
2022-08-28T08:10:58.502Z,5.72
2022-08-28T08:12:32.509Z,5.32
2022-08-28T08:14:06.565Z,5.18
2022-08-28T08:15:38.887Z,5.05
2022-08-28T08:17:11.562Z,5.35
2022-08-28T08:18:44.354Z,5.00
2022-08-28T08:20:16.753Z,4.68
2022-08-28T08:21:54.912Z,4.68
2022-08-28T08:23:27.655Z,4.78
2022-08-28T08:25:01.087Z,5.32
2022-08-28T08:26:33.874Z,5.07
2022-08-28T08:28:06.328Z,5.00
2022-08-28T08:29:39.350Z,5.03
2022-08-28T08:31:17.697Z,4.07
2022-08-28T08:32:51.221Z,4.60
2022-08-28T08:34:23.548Z,4.63
2022-08-28T08:35:56.344Z,4.85
2022-08-28T08:37:28.798Z,5.05
2022-08-28T08:39:01.674Z,4.60
2022-08-28T08:40:38.983Z,4.78
2022-08-28T08:42:23.998Z,5.28
2022-08-28T08:44:06.884Z,4.95
2022-08-28T08:45:39.774Z,4.82
2022-08-28T08:47:20.070Z,4.82
2022-08-28T08:48:52.672Z,4.85
2022-08-28T08:50:33.860Z,4.57
2022-08-28T08:52:21.315Z,5.32
2022-08-28T08:54:25.942Z,4.57
2022-08-28T08:55:58.818Z,4.80
2022-08-28T08:57:31.710Z,4.32
2022-08-28T08:59:04.704Z,4.57
2022-08-28T09:01:11.531Z,5.05
2022-08-28T09:03:14.614Z,4.80
2022-08-28T09:04:58.210Z,4.60
2022-08-28T09:08:07.947Z,4.55
2022-08-28T09:09:48.846Z,4.78
2022-08-28T09:11:45.398Z,4.43
2022-08-28T09:13:29.639Z,4.50
2022-08-28T09:15:13.073Z,4.60
2022-08-28T09:18:28.542Z,4.57
2022-08-28T09:20:01.028Z,5.13
2022-08-28T09:21:38.548Z,4.35
2022-08-28T09:23:12.382Z,4.70
2022-08-28T09:24:45.825Z,4.40
2022-08-28T09:26:23.586Z,4.75
2022-08-28T09:27:55.984Z,4.43
2022-08-28T09:29:38.307Z,4.82
2022-08-28T09:31:14.676Z,4.40
2022-08-28T09:32:59.528Z,4.88
2022-08-28T09:34:38.825Z,4.75
2022-08-28T09:36:32.336Z,4.65
2022-08-28T09:38:27.573Z,4.43
2022-08-28T09:40:16.815Z,4.32
2022-08-28T09:42:40.944Z,4.65
2022-08-28T09:44:15.691Z,4.60
2022-08-28T09:46:16.889Z,4.45
2022-08-28T09:47:57.615Z,4.72
2022-08-28T09:49:31.349Z,4.53
2022-08-28T09:51:08.338Z,4.25
2022-08-28T09:52:40.681Z,4.82
2022-08-28T09:54:22.517Z,4.53
2022-08-28T09:56:12.303Z,5.25
2022-08-28T09:57:47.498Z,4.43
2022-08-28T09:59:21.975Z,4.40
2022-08-28T10:13:19.579Z,4.13
2022-08-28T10:14:55.019Z,3.92
2022-08-28T10:16:30.620Z,4.38
2022-08-28T10:18:06.029Z,4.28
2022-08-28T10:19:46.839Z,4.20
2022-08-28T10:21:36.772Z,4.10
2022-08-28T10:23:09.173Z,3.72
2022-08-28T10:25:19.900Z,4.30
2022-08-28T10:26:56.165Z,4.10
2022-08-28T10:28:46.978Z,3.90
2022-08-28T10:30:24.768Z,3.88
2022-08-28T10:32:15.414Z,3.90
2022-08-28T10:33:59.474Z,3.90
2022-08-28T10:35:56.016Z,3.50
2022-08-28T10:37:37.021Z,3.88
2022-08-28T10:39:09.535Z,4.32
2022-08-28T10:41:01.695Z,3.92
2022-08-28T10:42:44.329Z,4.00
2022-08-28T10:44:22.332Z,4.05
2022-08-28T10:45:55.597Z,4.15
2022-08-28T10:47:29.690Z,3.92
2022-08-28T10:49:11.527Z,4.30
2022-08-28T10:50:51.163Z,3.90
2022-08-28T10:54:28.226Z,4.30
2022-08-28T10:56:05.345Z,4.38
2022-08-28T10:57:43.262Z,3.95
2022-08-28T10:59:15.587Z,4.15
2022-08-28T11:00:48.152Z,4.57
2022-08-28T11:02:22.905Z,4.50
2022-08-28T11:03:57.321Z,3.92
2022-08-28T11:05:33.521Z,3.78
2022-08-28T11:07:09.196Z,4.20
2022-08-28T11:08:42.077Z,3.92
2022-08-28T11:10:29.596Z,4.65
2022-08-28T11:12:07.436Z,3.80
2022-08-28T11:13:48.964Z,3.83
2022-08-28T11:15:44.341Z,4.07
2022-08-28T11:17:22.582Z,4.03
2022-08-28T11:19:09.597Z,3.97
2022-08-28T11:21:16.344Z,3.60
2022-08-28T11:23:20.498Z,4.22
2022-08-28T11:25:14.238Z,4.53
2022-08-28T11:27:04.878Z,4.13
2022-08-28T11:28:37.059Z,3.97
2022-08-28T11:30:12.368Z,3.95
2022-08-28T11:31:44.729Z,4.03
2022-08-28T11:33:39.058Z,4.57
2022-08-28T11:35:29.955Z,3.55
2022-08-28T11:37:03.372Z,4.05
2022-08-28T11:39:02.963Z,4.32
2022-08-28T11:40:37.140Z,3.90
2022-08-28T11:42:14.164Z,4.20
2022-08-28T11:43:46.985Z,3.90
2022-08-28T11:45:45.711Z,4.10
2022-08-28T11:47:40.179Z,4.82
2022-08-28T11:49:24.994Z,4.55
2022-08-28T11:51:05.039Z,4.15
2022-08-28T11:52:50.784Z,4.40
2022-08-28T11:54:23.250Z,4.20
2022-08-28T11:56:29.062Z,3.92
2022-08-28T11:59:52.959Z,4.38
2022-08-28T12:01:35.864Z,3.67
2022-08-28T12:03:27.035Z,4.03
2022-08-28T12:04:59.522Z,4.43
2022-08-28T12:06:55.692Z,3.85
2022-08-28T12:08:52.067Z,4.35
2022-08-28T12:10:27.679Z,4.32
2022-08-28T12:12:27.045Z,4.03
2022-08-28T12:13:59.441Z,4.50
2022-08-28T12:18:48.022Z,4.55
2022-08-28T12:20:45.524Z,4.60
2022-08-28T12:22:23.616Z,4.72
2022-08-28T12:24:21.092Z,4.78
2022-08-28T12:26:07.086Z,4.72
2022-08-28T12:27:39.908Z,4.40
2022-08-28T12:29:35.863Z,3.90
2022-08-28T12:31:46.481Z,4.60
2022-08-28T12:33:41.721Z,4.30
2022-08-28T12:35:19.829Z,4.65
2022-08-28T12:37:04.391Z,4.40
2022-08-28T12:38:36.871Z,5.00
2022-08-28T12:40:19.888Z,4.30
2022-08-28T12:41:52.627Z,4.13
2022-08-28T12:45:08.367Z,4.70
2022-08-28T12:46:43.650Z,4.82
2022-08-28T12:48:34.843Z,4.05
2022-08-28T12:50:29.576Z,4.20
2022-08-28T12:52:18.626Z,4.80
2022-08-28T12:53:59.449Z,4.97
2022-08-28T12:55:33.217Z,4.40
2022-08-28T12:57:12.590Z,4.30
2022-08-28T12:58:45.336Z,4.53
2022-08-28T13:00:26.682Z,4.63
2022-08-28T13:02:27.806Z,4.22
2022-08-28T13:04:06.021Z,4.45
2022-08-28T13:05:43.003Z,4.40
2022-08-28T13:07:18.114Z,4.95
2022-08-28T13:08:50.751Z,4.10
2022-08-28T13:10:26.522Z,3.92
2022-08-28T13:11:59.053Z,4.13
2022-08-28T13:13:41.153Z,4.32
2022-08-28T13:15:14.994Z,4.40
2022-08-28T13:18:50.714Z,4.78
2022-08-28T13:20:26.302Z,4.50
2022-08-28T13:22:03.715Z,4.53
2022-08-28T13:23:36.147Z,4.68
2022-08-28T13:25:09.441Z,4.00
2022-08-28T13:26:41.835Z,4.95
2022-08-28T13:28:16.159Z,4.50
2022-08-28T13:32:04.525Z,4.45
2022-08-28T13:33:37.041Z,4.90
2022-08-28T13:35:29.739Z,4.38
2022-08-28T13:37:07.428Z,4.97
2022-08-28T13:38:52.478Z,4.30
2022-08-28T13:40:56.351Z,4.75
2022-08-28T13:42:22.820Z,4.43
2022-08-28T13:43:55.104Z,4.50
2022-08-28T13:45:30.574Z,4.80
2022-08-28T13:47:16.059Z,4.85
2022-08-28T13:48:48.353Z,4.10
2022-08-28T13:50:20.600Z,4.07
2022-08-28T13:51:52.898Z,4.28
2022-08-28T13:53:25.753Z,4.97
2022-08-28T13:54:57.989Z,4.82
2022-08-28T13:56:31.814Z,4.70
2022-08-28T13:58:04.381Z,4.38
2022-08-28T13:59:36.700Z,4.55
2022-08-28T14:01:10.864Z,4.55
2022-08-28T14:04:33.871Z,4.40
2022-08-28T14:06:11.892Z,4.75
2022-08-28T14:07:45.046Z,5.00
2022-08-28T14:09:17.706Z,4.60
2022-08-28T14:10:50.370Z,4.70
2022-08-28T14:12:22.774Z,4.47
2022-08-28T14:14:03.892Z,5.35
2022-08-28T14:15:36.381Z,4.55
2022-08-28T14:17:09.104Z,5.20
2022-08-28T14:18:41.479Z,5.07
2022-08-28T14:20:15.635Z,4.63
2022-08-28T14:21:48.355Z,4.45
2022-08-28T14:23:22.721Z,4.50
2022-08-28T14:24:55.123Z,4.80
2022-08-28T14:26:29.158Z,4.70
2022-08-28T14:28:01.574Z,4.85
2022-08-28T14:29:34.016Z,5.20
2022-08-28T14:31:12.267Z,4.50
2022-08-28T14:32:44.946Z,5.20
2022-08-28T14:35:51.137Z,4.95
2022-08-28T14:39:00.775Z,4.70
2022-08-28T14:40:43.567Z,4.47
2022-08-28T14:42:16.071Z,4.47
2022-08-28T14:43:50.160Z,9.35
2022-08-28T14:45:22.637Z,10.20
2022-08-28T14:46:57.278Z,6.07
2022-08-28T14:48:30.037Z,6.22
2022-08-28T14:50:02.614Z,13.27
2022-08-28T14:51:36.545Z,6.78
2022-08-28T14:53:10.255Z,6.88
2022-08-28T14:54:42.713Z,5.72
2022-08-28T14:56:15.127Z,4.75
2022-08-28T14:57:48.793Z,4.88
2022-08-28T14:59:26.891Z,4.65
2022-08-28T15:00:59.507Z,3.97
2022-08-28T15:02:31.901Z,4.78
2022-08-28T15:04:06.175Z,6.10
2022-08-28T15:05:38.887Z,4.60
2022-08-28T15:07:13.446Z,5.00
2022-08-28T15:08:47.050Z,4.95
2022-08-28T15:10:19.608Z,5.13
2022-08-28T15:11:52.092Z,4.72
2022-08-28T15:13:24.806Z,4.88
2022-08-28T15:15:04.092Z,4.72
2022-08-28T15:16:40.176Z,5.03
2022-08-28T15:18:12.733Z,5.13
2022-08-28T15:19:45.106Z,4.90
2022-08-28T15:21:20.870Z,5.03
2022-08-28T15:22:53.355Z,4.93
2022-08-28T15:24:29.110Z,4.72
2022-08-28T15:26:01.539Z,4.88
2022-08-28T15:27:34.175Z,6.07
2022-08-28T15:30:47.138Z,5.03
2022-08-28T15:32:19.509Z,4.65
2022-08-28T15:33:52.885Z,4.90
2022-08-28T15:35:25.276Z,5.00
2022-08-28T15:36:58.435Z,4.97
2022-08-28T15:38:53.940Z,5.43
2022-08-28T15:40:47.383Z,5.45
2022-08-28T15:42:19.802Z,4.90
2022-08-28T15:43:57.168Z,5.10
2022-08-28T15:45:29.770Z,5.13
2022-08-28T15:47:03.087Z,5.28
2022-08-28T15:48:35.662Z,5.22
2022-08-28T15:50:08.371Z,5.55
2022-08-28T15:51:43.887Z,5.18
2022-08-28T15:53:18.237Z,5.32
2022-08-28T15:54:50.872Z,5.45
2022-08-28T15:56:23.970Z,5.07
2022-08-28T15:57:57.323Z,5.22
2022-08-28T15:59:48.436Z,5.38
2022-08-28T16:01:22.985Z,5.47
2022-08-28T16:03:00.548Z,5.20
2022-08-28T16:04:33.142Z,5.13
2022-08-28T16:06:15.612Z,5.38
2022-08-28T16:07:48.199Z,5.70
2022-08-28T16:09:23.789Z,5.65
2022-08-28T16:10:56.723Z,5.32
2022-08-28T16:14:04.943Z,5.53
2022-08-28T16:15:37.883Z,5.40
2022-08-28T16:17:10.667Z,5.70
2022-08-28T16:18:43.846Z,4.80
2022-08-28T16:20:16.614Z,5.10
2022-08-28T16:21:49.232Z,5.57
2022-08-28T16:23:21.630Z,5.90
2022-08-28T16:24:54.204Z,6.10
2022-08-28T16:26:30.191Z,5.35
2022-08-28T16:28:03.489Z,5.45
2022-08-28T16:29:36.043Z,5.40
2022-08-28T16:31:18.948Z,5.65
2022-08-28T16:32:52.494Z,5.70
2022-08-28T16:34:31.261Z,5.53
2022-08-28T16:36:11.889Z,6.13
2022-08-28T16:37:44.500Z,5.68
2022-08-28T16:39:17.065Z,6.45
2022-08-28T16:40:49.720Z,6.00
2022-08-28T16:42:23.791Z,6.07
2022-08-28T16:43:56.642Z,5.85
2022-08-28T16:45:28.922Z,5.55
2022-08-28T16:47:01.741Z,6.25
2022-08-28T16:48:34.206Z,5.90
2022-08-28T16:50:11.483Z,6.78
2022-08-28T16:51:44.056Z,5.82
2022-08-28T16:53:20.031Z,6.60
2022-08-28T16:54:56.928Z,6.97
2022-08-28T16:56:29.311Z,6.18
2022-08-28T16:58:01.503Z,6.05
2022-08-28T16:59:33.534Z,6.83
2022-08-28T17:01:11.069Z,6.60
2022-08-28T17:02:44.925Z,6.80
2022-08-28T17:04:17.435Z,6.43
2022-08-28T17:05:49.839Z,6.65
2022-08-28T17:07:22.557Z,6.63
2022-08-28T17:08:57.133Z,6.68
2022-08-28T17:10:29.985Z,6.95
2022-08-28T17:12:02.986Z,6.38
2022-08-28T17:13:36.886Z,7.13
2022-08-28T17:15:11.338Z,6.97
2022-08-28T17:16:44.031Z,6.65
2022-08-28T17:18:16.354Z,6.57
2022-08-28T17:19:48.843Z,6.20
2022-08-28T17:21:40.693Z,6.57
2022-08-28T17:23:13.247Z,6.88
2022-08-28T17:24:48.198Z,7.13
2022-08-28T17:26:25.475Z,7.00
2022-08-28T17:27:58.591Z,6.88
2022-08-28T17:31:03.348Z,6.65
2022-08-28T17:32:35.963Z,7.95
2022-08-28T17:34:08.618Z,7.03
2022-08-28T17:35:42.210Z,6.97
2022-08-28T17:37:14.856Z,6.70
2022-08-28T17:38:48.067Z,7.20
2022-08-28T17:41:57.154Z,7.13
2022-08-28T17:43:29.631Z,6.90
2022-08-28T17:45:02.235Z,8.00
2022-08-28T17:46:37.901Z,7.22
2022-08-28T17:48:14.889Z,7.15
2022-08-28T17:49:47.385Z,7.55
2022-08-28T17:51:20.184Z,7.32
2022-08-28T17:53:05.904Z,7.70
2022-08-28T17:54:38.272Z,7.40
2022-08-28T17:56:10.598Z,7.30
2022-08-28T17:57:43.079Z,7.93
2022-08-28T17:59:15.974Z,7.10
2022-08-28T18:00:48.565Z,6.75
2022-08-28T18:02:21.049Z,6.63
2022-08-28T18:03:55.780Z,7.07
2022-08-28T18:05:28.185Z,7.57
2022-08-28T18:07:00.580Z,7.22
2022-08-28T18:08:33.000Z,7.78
2022-08-28T18:11:38.853Z,7.15
2022-08-28T18:13:11.814Z,6.65
2022-08-28T18:14:44.347Z,7.45
2022-08-28T18:16:17.274Z,7.03
2022-08-28T18:17:51.240Z,6.82
2022-08-28T18:19:24.730Z,7.30
2022-08-28T18:20:57.886Z,7.68
2022-08-28T18:24:03.344Z,6.95
2022-08-28T18:25:50.897Z,7.32
2022-08-28T18:27:27.400Z,7.18
2022-08-28T18:29:00.180Z,7.47
2022-08-28T18:30:33.539Z,7.88
2022-08-28T18:32:08.654Z,6.93
2022-08-28T18:33:41.630Z,7.30
2022-08-28T18:35:14.289Z,7.75
2022-08-28T18:36:46.978Z,7.65
2022-08-28T18:38:22.316Z,7.38
2022-08-28T18:39:54.918Z,7.43
2022-08-28T18:41:43.198Z,7.47
2022-08-28T18:43:20.863Z,7.50
2022-08-28T18:44:53.539Z,7.13
2022-08-28T18:46:26.242Z,7.78
2022-08-28T18:48:02.755Z,7.40
2022-08-28T18:49:35.412Z,7.40
2022-08-28T18:51:10.361Z,7.85
2022-08-28T18:52:43.950Z,7.10
2022-08-28T18:54:21.870Z,8.00
2022-08-28T18:55:55.763Z,7.95
2022-08-28T18:57:28.233Z,8.05
2022-08-28T18:59:00.683Z,7.60
2022-08-28T19:00:33.361Z,7.95
2022-08-28T19:02:05.791Z,7.35
2022-08-28T19:03:38.872Z,7.43
2022-08-28T19:05:12.076Z,7.90
2022-08-28T19:08:19.819Z,7.45
2022-08-28T19:09:52.464Z,7.90
2022-08-28T19:11:25.172Z,7.47
2022-08-28T19:12:58.132Z,7.45
2022-08-28T19:14:30.687Z,7.82
2022-08-28T19:16:03.535Z,7.80
2022-08-28T19:17:37.571Z,7.45
2022-08-28T19:19:10.368Z,7.28
2022-08-28T19:22:16.297Z,7.15
2022-08-28T19:23:56.070Z,7.60
2022-08-28T19:25:31.057Z,7.07
2022-08-28T19:27:04.071Z,7.68
2022-08-28T19:28:37.170Z,7.00
2022-08-28T19:30:16.216Z,7.57
2022-08-28T19:31:48.840Z,8.00
2022-08-28T19:33:21.664Z,8.63
2022-08-28T19:34:53.979Z,7.88
2022-08-28T19:36:27.932Z,8.05
2022-08-28T19:38:00.464Z,7.88
2022-08-28T19:39:32.957Z,7.80
2022-08-28T19:41:12.577Z,7.65
2022-08-28T19:42:45.066Z,7.90
2022-08-28T19:44:17.621Z,7.65
2022-08-28T19:45:50.218Z,7.95
2022-08-28T19:47:22.870Z,8.13
2022-08-28T19:48:56.065Z,7.88
2022-08-28T19:52:01.383Z,8.10
2022-08-28T19:53:34.184Z,7.85
2022-08-28T19:55:08.104Z,7.80
2022-08-28T19:56:41.891Z,7.35
2022-08-28T19:58:14.461Z,8.05
2022-08-28T19:59:47.277Z,8.20
2022-08-28T20:01:21.172Z,7.85
2022-08-28T20:02:53.799Z,8.18
2022-08-28T20:04:26.620Z,7.07
2022-08-28T20:06:04.219Z,7.43
2022-08-28T20:09:13.005Z,7.82
2022-08-28T20:10:46.778Z,8.18
2022-08-28T20:12:20.213Z,7.57
2022-08-28T20:13:57.167Z,7.90
2022-08-28T20:15:31.379Z,8.07
2022-08-28T20:17:03.891Z,8.00
2022-08-28T20:18:36.208Z,7.65
2022-08-28T20:20:10.847Z,7.53
2022-08-28T20:21:49.493Z,8.35
2022-08-28T20:23:22.081Z,8.18
2022-08-28T20:24:54.878Z,7.82
2022-08-28T20:26:28.248Z,8.00
2022-08-28T20:28:01.928Z,7.50
2022-08-28T20:29:34.669Z,7.65
2022-08-28T20:31:20.911Z,7.97
2022-08-28T20:32:54.870Z,7.95
2022-08-28T20:34:27.990Z,8.68
2022-08-28T20:36:02.178Z,7.47
2022-08-28T20:37:44.714Z,7.80
2022-08-28T20:39:18.989Z,8.20
2022-08-28T20:43:56.710Z,8.73
2022-08-28T20:45:29.676Z,7.95
2022-08-28T20:47:02.155Z,7.78
2022-08-28T20:48:34.605Z,8.02
2022-08-28T20:50:07.725Z,8.17
2022-08-28T20:51:54.101Z,8.50
2022-08-28T20:53:37.363Z,7.78
2022-08-28T20:55:13.485Z,7.75
2022-08-28T20:56:45.608Z,7.38
2022-08-28T20:58:17.849Z,8.50
2022-08-28T20:59:50.686Z,7.63
2022-08-28T21:01:23.854Z,7.75
2022-08-28T21:04:30.751Z,8.48
2022-08-28T21:06:03.091Z,7.82
2022-08-28T21:07:35.645Z,8.32
2022-08-28T21:09:07.806Z,8.50
2022-08-28T21:10:43.574Z,7.80
2022-08-28T21:12:16.924Z,8.82
2022-08-28T21:13:49.017Z,8.55
2022-08-28T21:15:21.154Z,7.75
2022-08-28T21:17:01.350Z,8.38
2022-08-28T21:18:34.153Z,8.52
2022-08-28T21:20:10.502Z,8.23
2022-08-28T21:21:43.278Z,7.82
2022-08-28T21:23:15.668Z,7.75
2022-08-28T21:24:48.137Z,7.63
2022-08-28T21:26:20.382Z,8.18
2022-08-28T21:27:52.683Z,8.82
2022-08-28T21:29:24.768Z,8.02
2022-08-28T21:30:57.659Z,8.07
2022-08-28T21:32:30.919Z,7.97
2022-08-28T21:35:35.923Z,7.88
2022-08-28T21:37:08.126Z,7.75
2022-08-28T21:38:40.353Z,8.27
2022-08-28T21:40:15.058Z,7.95
2022-08-28T21:41:48.117Z,7.75
2022-08-28T21:43:20.501Z,8.45
2022-08-28T21:44:52.750Z,7.87
2022-08-28T21:46:25.053Z,8.27
2022-08-28T21:47:57.175Z,8.43
2022-08-28T21:49:29.553Z,7.93
2022-08-28T21:51:01.632Z,8.10
2022-08-28T21:52:37.045Z,7.95
2022-08-28T21:54:09.179Z,7.78
2022-08-28T21:55:48.133Z,8.40
2022-08-28T21:57:20.182Z,7.90
2022-08-28T21:58:52.844Z,7.88
2022-08-28T22:00:25.067Z,7.88
2022-08-28T22:03:38.617Z,8.15
2022-08-28T22:05:10.647Z,7.68
2022-08-28T22:06:42.721Z,7.78
2022-08-28T22:08:15.774Z,7.78
2022-08-28T22:09:48.082Z,7.93
2022-08-28T22:11:24.532Z,7.80
2022-08-28T22:12:57.459Z,8.10
2022-08-28T22:14:29.787Z,8.00
2022-08-28T22:16:01.935Z,8.48
2022-08-28T22:17:34.160Z,7.85
2022-08-28T22:19:06.662Z,8.73
2022-08-28T22:21:00.746Z,8.45
2022-08-28T22:22:51.386Z,7.60
2022-08-28T22:24:24.079Z,7.85
2022-08-28T22:25:56.464Z,7.57
2022-08-28T22:27:28.701Z,8.02
2022-08-28T22:29:00.834Z,8.07
2022-08-28T22:30:33.972Z,8.07
2022-08-28T22:32:08.255Z,8.10
2022-08-28T22:33:40.501Z,8.27
2022-08-28T22:35:12.709Z,7.95
2022-08-28T22:36:44.856Z,8.45
2022-08-28T22:38:17.017Z,7.93
2022-08-28T22:39:49.133Z,7.78
2022-08-28T22:41:21.322Z,8.35
2022-08-28T22:42:56.477Z,7.93
2022-08-28T22:44:28.518Z,7.68
2022-08-28T22:46:01.011Z,7.80
2022-08-28T22:47:33.274Z,7.78
2022-08-28T22:49:05.483Z,7.80
2022-08-28T22:50:38.014Z,8.25
2022-08-28T22:52:11.900Z,8.20
2022-08-28T22:53:44.014Z,8.00
2022-08-28T22:55:19.345Z,8.05
2022-08-28T22:56:51.821Z,8.23
2022-08-28T22:58:23.849Z,7.63
2022-08-28T22:59:56.001Z,8.00
2022-08-28T23:01:28.247Z,7.80
2022-08-28T23:03:00.859Z,7.63
2022-08-28T23:04:33.014Z,7.68
2022-08-28T23:06:06.073Z,8.10
2022-08-28T23:07:38.483Z,8.30
2022-08-28T23:09:10.556Z,8.17
2022-08-28T23:10:58.680Z,7.90
2022-08-28T23:12:31.533Z,8.30
2022-08-28T23:14:05.519Z,8.10
2022-08-28T23:15:37.606Z,7.90
2022-08-28T23:17:10.214Z,8.20
2022-08-28T23:19:07.559Z,7.05
2022-08-28T23:20:35.518Z,7.38
2022-08-28T23:22:07.630Z,8.27
2022-08-28T23:23:39.686Z,7.70
2022-08-28T23:25:19.626Z,7.85
2022-08-28T23:26:51.680Z,7.82
2022-08-28T23:28:23.868Z,8.25
2022-08-28T23:29:56.818Z,7.55
2022-08-28T23:31:28.966Z,8.23
2022-08-28T23:33:01.483Z,8.00
2022-08-28T23:34:36.245Z,7.70
2022-08-28T23:36:10.724Z,8.07
2022-08-28T23:37:48.002Z,8.65
2022-08-28T23:39:20.919Z,7.78
2022-08-28T23:42:33.829Z,7.53
2022-08-28T23:44:08.689Z,7.87
2022-08-28T23:45:41.932Z,7.85
2022-08-28T23:47:14.352Z,7.93
2022-08-28T23:48:49.552Z,7.78
2022-08-28T23:50:23.763Z,7.95
2022-08-28T23:51:56.893Z,7.85
2022-08-28T23:53:29.062Z,7.68
2022-08-28T23:55:01.842Z,8.43
2022-08-28T23:56:37.011Z,7.85
2022-08-28T23:58:09.175Z,7.20
2022-08-28T23:59:44.002Z,7.47
